Time;durP1;ratioP1;P1;durP2;ratioP2;P2;SDS_P1;SDS_P2;PMS_P1;PMS_P2;Temp;Humidity;BMP_temperature;BMP_pressure;BME280_temperature;BME280_humidity;BME280_pressure;Samples;Min_cycle;Max_cycle;Signal;HPM_P1;HPM_P2
2023/06/22 00:01:23;;;;;;;;;;;15.90;56.20;;;;;;5013218;28;19906;-81
2023/06/22 00:03:49;;;;;;;;;;;15.90;56.60;;;;;;4996362;28;19909;-81
2023/06/22 00:06:14;;;;;;;;;;;15.90;56.10;;;;;;5013968;28;19909;-80
2023/06/22 00:08:40;;;;;;;;;;;15.90;56.50;;;;;;5013517;28;20382;-80
2023/06/22 00:11:06;;;;;;;;;;;15.90;56.30;;;;;;5013272;28;19905;-80
2023/06/22 00:13:31;;;;;;;;;;;15.80;56.30;;;;;;5012780;28;19921;-81
2023/06/22 00:15:57;;;;;;;;;;;15.80;56.50;;;;;;5013374;28;19910;-80
2023/06/22 00:18:27;;;;;;;;;;;15.80;56.60;;;;;;5012790;28;19945;-81
2023/06/22 00:20:58;;;;;;;;;;;15.70;56.80;;;;;;5014324;28;19909;-80
2023/06/22 00:23:24;;;;;;;;;;;15.70;56.50;;;;;;5013442;28;19914;-80
2023/06/22 00:25:50;;;;;;;;;;;15.60;56.30;;;;;;5014985;28;19912;-81
2023/06/22 00:28:22;;;;;;;;;;;15.60;56.30;;;;;;5013133;28;20341;-82
2023/06/22 00:30:49;;;;;;;;;;;15.50;56.40;;;;;;4993457;28;19905;-79
2023/06/22 00:33:15;;;;;;;;;;;15.50;56.70;;;;;;5012910;28;19960;-82
2023/06/22 00:35:41;;;;;;;;;;;15.40;56.90;;;;;;5013137;28;19932;-80
2023/06/22 00:38:08;;;;;;;;;;;15.40;57.30;;;;;;5012570;28;20362;-80
2023/06/22 00:40:34;;;;;;;;;;;15.40;57.20;;;;;;5013430;28;19906;-82
2023/06/22 00:43:00;;;;;;;;;;;15.40;57.20;;;;;;5014357;28;19922;-82
2023/06/22 00:45:26;;;;;;;;;;;15.30;57.20;;;;;;4997789;28;19906;-81
2023/06/22 00:47:55;;;;;;;;;;;15.30;57.30;;;;;;5010771;28;20387;-81
2023/06/22 00:50:24;;;;;;;;;;;15.20;57.40;;;;;;5002601;28;19913;-81
2023/06/22 00:52:56;;;;;;;;;;;15.20;57.70;;;;;;5013085;28;19936;-82
2023/06/22 00:55:22;;;;;;;;;;;15.20;58.00;;;;;;4995929;28;20458;-81
2023/06/22 00:57:48;;;;;;;;;;;15.30;58.20;;;;;;4993344;28;19925;-81
2023/06/22 01:00:19;;;;;;;;;;;15.30;57.80;;;;;;4997523;28;19905;-80
2023/06/22 01:02:45;;;;;;;;;;;15.20;57.70;;;;;;5019287;28;19929;-81
2023/06/22 01:05:13;;;;;;;;;;;15.20;57.70;;;;;;5021998;28;19905;-81
2023/06/22 01:07:41;;;;;;;;;;;15.20;57.90;;;;;;5021057;28;19906;-80
2023/06/22 01:10:09;;;;;;;;;;;15.20;58.00;;;;;;5013205;28;19953;-81
2023/06/22 01:12:38;;;;;;;;;;;15.20;58.20;;;;;;5016846;28;19906;-81
2023/06/22 01:15:10;;;;;;;;;;;15.10;58.40;;;;;;5002007;28;20381;-81
2023/06/22 01:17:39;;;;;;;;;;;15.20;58.70;;;;;;5015589;28;20394;-81
2023/06/22 01:20:05;;;;;;;;;;;15.20;58.80;;;;;;5020670;28;19912;-81
2023/06/22 01:22:33;;;;;;;;;;;15.20;58.80;;;;;;5022677;28;19914;-82
2023/06/22 01:25:20;;;;;;;;;;;15.30;59.10;;;;;;4996396;28;19905;-81
2023/06/22 01:27:45;;;;;;;;;;;15.30;59.20;;;;;;5018692;28;20288;-81
2023/06/22 01:30:12;;;;;;;;;;;15.30;59.30;;;;;;5013786;28;19940;-79
2023/06/22 01:32:42;;;;;;;;;;;15.40;59.50;;;;;;5014015;28;19945;-79
2023/06/22 01:35:08;;;;;;;;;;;15.40;59.70;;;;;;4980303;28;19917;-81
2023/06/22 01:37:35;;;;;;;;;;;15.40;60.00;;;;;;5013602;28;19906;-80
2023/06/22 01:40:01;;;;;;;;;;;15.50;59.40;;;;;;5012317;28;20004;-80
2023/06/22 01:42:28;;;;;;;;;;;15.50;59.50;;;;;;5012484;28;19917;-80
2023/06/22 01:44:53;;;;;;;;;;;15.50;59.50;;;;;;4994481;28;19909;-80
2023/06/22 01:47:22;;;;;;;;;;;15.60;59.60;;;;;;5012531;28;19967;-79
2023/06/22 01:49:48;;;;;;;;;;;15.60;59.60;;;;;;5014611;28;19915;-80
2023/06/22 01:52:14;;;;;;;;;;;15.70;59.60;;;;;;5000305;28;19992;-80
2023/06/22 01:54:40;;;;;;;;;;;15.80;59.70;;;;;;5000410;28;20413;-79
2023/06/22 01:57:06;;;;;;;;;;;15.80;59.70;;;;;;5017628;28;19983;-80
2023/06/22 01:59:36;;;;;;;;;;;15.90;59.80;;;;;;5021587;28;19905;-79
2023/06/22 02:02:07;;;;;;;;;;;16.00;59.50;;;;;;5015852;28;19917;-80
2023/06/22 02:04:35;;;;;;;;;;;16.00;59.40;;;;;;5017775;28;20028;-79
2023/06/22 02:07:04;;;;;;;;;;;16.10;59.40;;;;;;5017726;28;20280;-78
2023/06/22 02:09:31;;;;;;;;;;;16.10;59.30;;;;;;4998600;28;19909;-81
2023/06/22 02:11:58;;;;;;;;;;;16.20;59.40;;;;;;5015780;28;19914;-80
2023/06/22 02:14:24;;;;;;;;;;;16.20;59.30;;;;;;5015422;28;19913;-82
2023/06/22 02:16:51;;;;;;;;;;;16.30;59.00;;;;;;5015597;28;19999;-81
2023/06/22 02:19:18;;;;;;;;;;;16.40;58.90;;;;;;5015505;28;19910;-80
2023/06/22 02:21:45;;;;;;;;;;;16.40;58.90;;;;;;5015643;28;19909;-82
2023/06/22 02:24:10;;;;;;;;;;;16.50;58.60;;;;;;5015450;28;19913;-81
2023/06/22 02:26:38;;;;;;;;;;;16.60;58.00;;;;;;5015607;28;20373;-80
2023/06/22 02:29:03;;;;;;;;;;;16.60;57.90;;;;;;5015528;28;19905;-81
2023/06/22 02:31:30;;;;;;;;;;;16.70;57.70;;;;;;5015229;28;19996;-80
2023/06/22 02:33:58;;;;;;;;;;;16.70;57.50;;;;;;5015511;28;20398;-81
2023/06/22 02:36:26;;;;;;;;;;;16.70;57.30;;;;;;5015212;28;19949;-78
2023/06/22 02:38:52;;;;;;;;;;;16.70;57.10;;;;;;5015382;28;20399;-80
2023/06/22 02:41:18;;;;;;;;;;;16.70;57.10;;;;;;5015796;28;19906;-78
2023/06/22 02:43:47;;;;;;;;;;;16.70;57.10;;;;;;5015201;28;20004;-79
2023/06/22 02:46:13;;;;;;;;;;;16.60;57.10;;;;;;5015774;28;19916;-80
2023/06/22 02:48:42;;;;;;;;;;;16.60;57.10;;;;;;4997740;28;20298;-80
2023/06/22 02:51:08;;;;;;;;;;;16.70;57.20;;;;;;5015314;28;19913;-79
2023/06/22 02:53:33;;;;;;;;;;;16.70;57.20;;;;;;5015893;28;19906;-81
2023/06/22 02:56:01;;;;;;;;;;;16.70;57.20;;;;;;5025045;28;19909;-81
2023/06/22 02:58:27;;;;;;;;;;;16.70;57.10;;;;;;5026666;28;19924;-80
2023/06/22 03:00:53;;;;;;;;;;;16.80;57.80;;;;;;5014447;28;19910;-81
2023/06/22 03:03:18;;;;;;;;;;;17.00;57.30;;;;;;5016285;28;20299;-81
2023/06/22 03:05:44;;;;;;;;;;;17.20;57.10;;;;;;5015680;28;20431;-83
2023/06/22 03:08:10;;;;;;;;;;;17.40;57.40;;;;;;5016408;28;19905;-80
2023/06/22 03:10:36;;;;;;;;;;;17.60;56.60;;;;;;5014078;28;19913;-81
2023/06/22 03:13:01;;;;;;;;;;;17.90;56.10;;;;;;5014664;28;19909;-80
2023/06/22 03:15:29;;;;;;;;;;;18.10;56.00;;;;;;5015869;28;20355;-81
2023/06/22 03:17:54;;;;;;;;;;;18.20;55.60;;;;;;5008923;28;19905;-80
2023/06/22 03:20:20;;;;;;;;;;;18.30;55.20;;;;;;4997214;28;19951;-81
2023/06/22 03:22:46;;;;;;;;;;;18.40;55.10;;;;;;5021321;28;19975;-80
2023/06/22 03:25:14;;;;;;;;;;;18.40;54.80;;;;;;5034385;28;19906;-80
2023/06/22 03:27:40;;;;;;;;;;;18.30;54.80;;;;;;5014926;28;19925;-79
2023/06/22 03:30:07;;;;;;;;;;;18.40;54.80;;;;;;5014040;28;19909;-80
2023/06/22 03:32:32;;;;;;;;;;;18.40;54.90;;;;;;5013444;28;19993;-80
2023/06/22 03:34:58;;;;;;;;;;;18.40;54.90;;;;;;5014000;28;19933;-79
2023/06/22 03:37:27;;;;;;;;;;;18.40;54.80;;;;;;5014110;28;19905;-80
2023/06/22 03:39:53;;;;;;;;;;;18.40;54.70;;;;;;5015998;28;19909;-80
2023/06/22 03:42:18;;;;;;;;;;;18.50;54.60;;;;;;5013489;28;20431;-80
2023/06/22 03:44:44;;;;;;;;;;;18.50;54.50;;;;;;4998225;28;19905;-80
2023/06/22 03:47:10;;;;;;;;;;;18.60;54.50;;;;;;5016976;28;20490;-79
2023/06/22 03:49:36;;;;;;;;;;;18.70;54.50;;;;;;5015212;28;20287;-79
2023/06/22 03:52:02;;;;;;;;;;;18.80;54.40;;;;;;5014671;28;19955;-79
2023/06/22 03:54:28;;;;;;;;;;;18.90;54.20;;;;;;4996867;28;19905;-81
2023/06/22 03:56:53;;;;;;;;;;;19.00;53.80;;;;;;5013665;28;20001;-81
2023/06/22 03:59:19;;;;;;;;;;;19.00;53.80;;;;;;5013854;28;19905;-79
2023/06/22 04:01:46;;;;;;;;;;;19.10;53.70;;;;;;5008162;28;20069;-79
2023/06/22 04:04:12;;;;;;;;;;;19.20;53.60;;;;;;5015946;28;19996;-81
2023/06/22 04:06:38;;;;;;;;;;;19.30;53.40;;;;;;4996503;28;19909;-80
2023/06/22 04:09:05;;;;;;;;;;;19.50;53.00;;;;;;5014193;28;20268;-82
2023/06/22 04:11:31;;;;;;;;;;;19.60;52.80;;;;;;5012483;28;19909;-79
2023/06/22 04:13:56;;;;;;;;;;;19.70;52.60;;;;;;4995587;28;19983;-81
2023/06/22 04:16:22;;;;;;;;;;;19.90;52.00;;;;;;5013193;28;20370;-81
2023/06/22 04:18:48;;;;;;;;;;;19.90;51.70;;;;;;5012965;28;20298;-80
2023/06/22 04:21:13;;;;;;;;;;;20.00;51.70;;;;;;5013195;28;19992;-81
2023/06/22 04:23:39;;;;;;;;;;;20.10;51.60;;;;;;5015526;28;20389;-82
2023/06/22 04:26:05;;;;;;;;;;;20.30;51.50;;;;;;5013049;28;19912;-81
2023/06/22 04:28:34;;;;;;;;;;;20.50;51.40;;;;;;5013103;28;20347;-81
2023/06/22 04:31:03;;;;;;;;;;;20.60;51.20;;;;;;5012679;28;20338;-81
2023/06/22 04:33:29;;;;;;;;;;;20.80;50.90;;;;;;5012945;28;19973;-81
2023/06/22 04:35:57;;;;;;;;;;;21.00;50.50;;;;;;5013273;28;19916;-81
2023/06/22 04:38:22;;;;;;;;;;;21.20;50.40;;;;;;5013142;28;19917;-83
2023/06/22 04:40:48;;;;;;;;;;;21.30;49.80;;;;;;4997183;28;19906;-81
2023/06/22 04:43:14;;;;;;;;;;;21.40;49.80;;;;;;5015587;28;19920;-80
2023/06/22 04:45:40;;;;;;;;;;;21.40;49.30;;;;;;5011138;28;19977;-81
2023/06/22 04:48:05;;;;;;;;;;;21.50;48.80;;;;;;5010551;28;20268;-81
2023/06/22 04:50:31;;;;;;;;;;;21.60;48.50;;;;;;5022302;28;19949;-80
2023/06/22 04:52:57;;;;;;;;;;;21.60;48.40;;;;;;5017673;28;19913;-81
2023/06/22 04:55:25;;;;;;;;;;;21.70;48.10;;;;;;4998140;28;20275;-80
2023/06/22 04:57:51;;;;;;;;;;;21.80;48.10;;;;;;5021030;28;20290;-81
2023/06/22 05:00:22;;;;;;;;;;;21.90;47.70;;;;;;5016596;28;19913;-81
2023/06/22 05:02:48;;;;;;;;;;;21.90;47.80;;;;;;4995950;28;20003;-82
2023/06/22 05:05:15;;;;;;;;;;;22.10;47.90;;;;;;5012880;28;20043;-82
2023/06/22 05:07:44;;;;;;;;;;;22.20;47.80;;;;;;5012366;28;19909;-80
2023/06/22 05:10:11;;;;;;;;;;;22.10;47.60;;;;;;5012938;28;19906;-80
2023/06/22 05:12:37;;;;;;;;;;;21.90;47.60;;;;;;5013437;28;19913;-81
2023/06/22 05:15:03;;;;;;;;;;;21.80;47.90;;;;;;5012530;28;19956;-83
2023/06/22 05:17:29;;;;;;;;;;;21.70;48.30;;;;;;5013555;28;19960;-81
2023/06/22 05:19:54;;;;;;;;;;;21.70;48.50;;;;;;4995940;28;19910;-82
2023/06/22 05:22:20;;;;;;;;;;;22.20;48.90;;;;;;5013015;28;19922;-81
2023/06/22 05:24:46;;;;;;;;;;;23.00;48.30;;;;;;5019422;28;19945;-83
2023/06/22 05:27:12;;;;;;;;;;;23.70;47.20;;;;;;5038343;28;19917;-81
2023/06/22 05:29:39;;;;;;;;;;;24.00;45.80;;;;;;5025915;28;20280;-80
2023/06/22 05:32:05;;;;;;;;;;;;;;;;;;5016990;28;19951;-79
2023/06/22 05:34:30;;;;;;;;;;;24.30;45.30;;;;;;5016150;28;19909;-80
2023/06/22 05:36:58;;;;;;;;;;;26.30;45.20;;;;;;4998148;28;19909;-78
2023/06/22 05:39:24;;;;;;;;;;;27.80;43.60;;;;;;5015536;28;19909;-81
2023/06/22 05:41:50;;;;;;;;;;;;;;;;;;4997583;28;19913;-80
2023/06/22 05:44:16;;;;;;;;;;;29.10;42.60;;;;;;5015655;28;19963;-78
2023/06/22 05:46:46;;;;;;;;;;;;;;;;;;4998059;28;19913;-78
2023/06/22 05:49:11;;;;;;;;;;;31.10;39.50;;;;;;5016780;28;19905;-78
2023/06/22 05:51:37;;;;;;;;;;;32.80;38.20;;;;;;5016009;28;19910;-79
2023/06/22 05:54:03;;;;;;;;;;;33.50;37.00;;;;;;4998293;28;20000;-79
2023/06/22 05:56:28;;;;;;;;;;;33.90;35.70;;;;;;5015365;28;19955;-80
2023/06/22 05:58:54;;;;;;;;;;;33.80;35.00;;;;;;4997575;28;19921;-80
2023/06/22 06:01:20;;;;;;;;;;;34.00;35.60;;;;;;5015411;28;19969;-78
2023/06/22 06:03:46;;;;;;;;;;;34.50;35.50;;;;;;5015416;28;19914;-78
2023/06/22 06:06:12;;;;;;;;;;;34.30;34.30;;;;;;5016314;28;19912;-79
2023/06/22 06:08:38;;;;;;;;;;;;;;;;;;5015554;28;19909;-79
2023/06/22 06:11:03;;;;;;;;;;;34.30;34.20;;;;;;5015645;28;19912;-79
2023/06/22 06:13:29;;;;;;;;;;;35.00;33.40;;;;;;5016264;28;19959;-80
2023/06/22 06:15:56;;;;;;;;;;;35.40;33.60;;;;;;5015585;28;19913;-80
2023/06/22 06:18:22;;;;;;;;;;;36.30;32.60;;;;;;5014918;28;19914;-79
2023/06/22 06:20:48;;;;;;;;;;;36.80;32.20;;;;;;4998049;28;19928;-79
2023/06/22 06:23:13;;;;;;;;;;;37.10;31.50;;;;;;5015319;28;19919;-79
2023/06/22 06:25:39;;;;;;;;;;;37.30;31.20;;;;;;5015461;28;19996;-79
2023/06/22 06:28:05;;;;;;;;;;;37.20;31.30;;;;;;5015261;28;20349;-79
2023/06/22 06:30:30;;;;;;;;;;;37.50;31.30;;;;;;5015127;28;19920;-80
2023/06/22 06:32:56;;;;;;;;;;;37.90;30.90;;;;;;5014690;28;20388;-79
2023/06/22 06:35:22;;;;;;;;;;;37.70;30.10;;;;;;5015568;28;19916;-79
2023/06/22 06:37:48;;;;;;;;;;;;;;;;;;4999490;28;19905;-80
2023/06/22 06:40:15;;;;;;;;;;;38.30;30.90;;;;;;5015328;28;20363;-80
2023/06/22 06:42:44;;;;;;;;;;;39.70;29.90;;;;;;5015146;28;19936;-79
2023/06/22 06:45:10;;;;;;;;;;;;;;;;;;5018018;28;19937;-81
2023/06/22 06:47:35;;;;;;;;;;;40.30;30.10;;;;;;5017309;28;19909;-79
2023/06/22 06:50:02;;;;;;;;;;;41.00;29.80;;;;;;5014119;28;19910;-80
2023/06/22 06:52:28;;;;;;;;;;;40.90;28.90;;;;;;4997090;28;20279;-77
2023/06/22 06:54:54;;;;;;;;;;;39.10;28.90;;;;;;5014620;28;19906;-80
2023/06/22 06:57:20;;;;;;;;;;;37.40;29.50;;;;;;4996815;28;20243;-80
2023/06/22 06:59:46;;;;;;;;;;;;;;;;;;5014704;28;19905;-80
2023/06/22 07:02:11;;;;;;;;;;;36.10;30.00;;;;;;5015260;28;19964;-79
2023/06/22 07:04:37;;;;;;;;;;;35.80;31.00;;;;;;5016695;28;19913;-79
2023/06/22 07:07:03;;;;;;;;;;;35.80;31.00;;;;;;5017196;28;20343;-81
2023/06/22 07:09:29;;;;;;;;;;;34.70;30.20;;;;;;5015772;28;19905;-79
2023/06/22 07:11:54;;;;;;;;;;;34.10;30.90;;;;;;5014377;28;19920;-80
2023/06/22 07:14:20;;;;;;;;;;;33.30;31.80;;;;;;5016301;28;19969;-81
2023/06/22 07:16:45;;;;;;;;;;;32.70;32.20;;;;;;4999556;28;19955;-79
2023/06/22 07:19:11;;;;;;;;;;;32.20;32.70;;;;;;5016843;28;19913;-79
2023/06/22 07:21:37;;;;;;;;;;;31.90;33.40;;;;;;5015385;28;19913;-80
2023/06/22 07:24:03;;;;;;;;;;;31.90;33.70;;;;;;5014699;28;20413;-79
2023/06/22 07:26:28;;;;;;;;;;;31.90;33.60;;;;;;5014218;28;19917;-79
2023/06/22 07:28:54;;;;;;;;;;;32.00;33.80;;;;;;4996331;28;19910;-81
2023/06/22 07:31:19;;;;;;;;;;;31.90;33.80;;;;;;5014558;28;19911;-80
2023/06/22 07:33:45;;;;;;;;;;;31.90;33.80;;;;;;5016082;28;20305;-80
2023/06/22 07:36:11;;;;;;;;;;;31.90;33.90;;;;;;4995245;28;20394;-80
2023/06/22 07:38:36;;;;;;;;;;;32.30;33.90;;;;;;5013331;28;19917;-80
2023/06/22 07:41:05;;;;;;;;;;;;;;;;;;5013611;28;19932;-81
2023/06/22 07:43:33;;;;;;;;;;;32.30;33.40;;;;;;5013366;28;20398;-80
2023/06/22 07:45:58;;;;;;;;;;;30.80;35.20;;;;;;5013509;28;20390;-79
2023/06/22 07:48:24;;;;;;;;;;;30.60;35.10;;;;;;5013161;28;19940;-81
2023/06/22 07:50:49;;;;;;;;;;;30.40;35.40;;;;;;4996656;28;20359;-80
2023/06/22 07:53:15;;;;;;;;;;;30.80;35.60;;;;;;5014715;28;20278;-80
2023/06/22 07:55:41;;;;;;;;;;;31.20;35.50;;;;;;5014201;28;19913;-79
2023/06/22 07:58:06;;;;;;;;;;;31.50;35.30;;;;;;5019478;28;19960;-80
2023/06/22 08:00:33;;;;;;;;;;;31.30;34.70;;;;;;5014403;28;19987;-79
2023/06/22 08:02:59;;;;;;;;;;;30.60;35.00;;;;;;4996534;28;20264;-80
2023/06/22 08:05:25;;;;;;;;;;;29.80;35.70;;;;;;5013501;28;19912;-80
2023/06/22 08:07:50;;;;;;;;;;;29.10;36.20;;;;;;5013277;28;20373;-80
2023/06/22 08:10:16;;;;;;;;;;;28.50;36.90;;;;;;5012235;28;19920;-81
2023/06/22 08:12:42;;;;;;;;;;;28.30;38.10;;;;;;5012945;28;19955;-81
2023/06/22 08:15:09;;;;;;;;;;;28.10;38.00;;;;;;5012933;28;19910;-81
2023/06/22 08:17:36;;;;;;;;;;;28.60;38.20;;;;;;5013090;28;19912;-80
2023/06/22 08:20:05;;;;;;;;;;;29.50;37.80;;;;;;5012937;28;19912;-80
2023/06/22 08:22:33;;;;;;;;;;;30.70;37.10;;;;;;5013418;28;20015;-79
2023/06/22 08:24:58;;;;;;;;;;;32.40;36.50;;;;;;5013196;28;19927;-81
2023/06/22 08:27:24;;;;;;;;;;;34.60;35.50;;;;;;4994756;28;20434;-82
2023/06/22 08:29:50;;;;;;;;;;;36.50;33.60;;;;;;5013138;28;19905;-80
2023/06/22 08:32:16;;;;;;;;;;;36.80;32.50;;;;;;5012822;28;20424;-80
2023/06/22 08:34:42;;;;;;;;;;;36.90;32.10;;;;;;5012750;28;19942;-81
2023/06/22 08:37:08;;;;;;;;;;;36.90;31.90;;;;;;5012734;28;19996;-78
2023/06/22 08:39:34;;;;;;;;;;;37.50;32.10;;;;;;5014329;28;19905;-80
2023/06/22 08:41:59;;;;;;;;;;;38.60;31.50;;;;;;5013068;28;19914;-81
2023/06/22 08:44:25;;;;;;;;;;;38.40;30.30;;;;;;5012656;28;19956;-79
2023/06/22 08:46:51;;;;;;;;;;;38.30;30.40;;;;;;5013322;28;19905;-81
2023/06/22 08:49:16;;;;;;;;;;;38.80;29.60;;;;;;5013441;28;19913;-80
2023/06/22 08:51:44;;;;;;;;;;;38.80;30.00;;;;;;5012658;28;19909;-81
2023/06/22 08:54:10;;;;;;;;;;;39.40;29.80;;;;;;5012398;28;19909;-80
2023/06/22 08:56:35;;;;;;;;;;;40.30;29.60;;;;;;5012004;28;19984;-80
2023/06/22 08:59:01;;;;;;;;;;;;;;;;;;5014377;28;19916;-79
2023/06/22 09:01:27;;;;;;;;;;;41.00;29.20;;;;;;5016373;28;19909;-82
2023/06/22 09:03:57;;;;;;;;;;;41.70;28.90;;;;;;5016328;28;19953;-79
2023/06/22 09:06:24;;;;;;;;;;;41.90;28.50;;;;;;5016452;28;19909;-80
2023/06/22 09:08:50;;;;;;;;;;;;;;;;;;5016557;28;19912;-80
2023/06/22 09:11:16;;;;;;;;;;;;;;;;;;5016397;28;20285;-80
2023/06/22 09:13:41;;;;;;;;;;;41.80;28.40;;;;;;5003218;28;19910;-80
2023/06/22 09:16:07;;;;;;;;;;;42.80;28.10;;;;;;5015203;28;20258;-79
2023/06/22 09:18:33;;;;;;;;;;;;;;;;;;4998520;28;19909;-80
2023/06/22 09:20:59;;;;;;;;;;;43.10;28.00;;;;;;5016015;28;20360;-80
2023/06/22 09:23:25;;;;;;;;;;;43.80;27.50;;;;;;5016156;28;19913;-81
2023/06/22 09:25:50;;;;;;;;;;;43.80;27.20;;;;;;5015628;28;20011;-81
2023/06/22 09:28:16;;;;;;;;;;;43.50;27.50;;;;;;5015990;28;19955;-79
2023/06/22 09:30:45;;;;;;;;;;;43.80;27.30;;;;;;5016540;28;19909;-81
2023/06/22 09:33:10;;;;;;;;;;;43.30;27.10;;;;;;5015301;28;19912;-79
2023/06/22 09:35:36;;;;;;;;;;;43.00;27.00;;;;;;5016292;28;20263;-80
2023/06/22 09:38:01;;;;;;;;;;;42.80;27.10;;;;;;5017043;28;19963;-80
2023/06/22 09:40:28;;;;;;;;;;;;;;;;;;5016651;28;20374;-80
2023/06/22 09:42:54;;;;;;;;;;;42.00;26.90;;;;;;5015650;28;20291;-80
2023/06/22 09:45:19;;;;;;;;;;;41.70;27.50;;;;;;5015699;28;19906;-80
2023/06/22 09:47:45;;;;;;;;;;;41.90;27.70;;;;;;5015366;28;20284;-80
2023/06/22 09:50:11;;;;;;;;;;;42.40;27.60;;;;;;5015742;28;19916;-79
2023/06/22 09:52:36;;;;;;;;;;;42.70;27.40;;;;;;4998082;28;19913;-79
2023/06/22 09:55:03;;;;;;;;;;;42.90;27.40;;;;;;5016370;28;19956;-81
2023/06/22 09:57:29;;;;;;;;;;;42.80;27.40;;;;;;5016421;28;19924;-80
2023/06/22 09:59:55;;;;;;;;;;;42.70;27.60;;;;;;5015147;28;19991;-82
2023/06/22 10:02:22;;;;;;;;;;;43.30;27.60;;;;;;5014779;28;23731;-81
2023/06/22 10:04:48;;;;;;;;;;;43.70;27.20;;;;;;5015443;28;19947;-79
2023/06/22 10:07:14;;;;;;;;;;;43.20;27.00;;;;;;5016459;28;19905;-80
2023/06/22 10:09:39;;;;;;;;;;;42.90;27.10;;;;;;5016018;28;19971;-84
2023/06/22 10:12:05;;;;;;;;;;;42.00;27.20;;;;;;4998251;28;19905;-78
2023/06/22 10:14:32;;;;;;;;;;;;;;;;;;5015829;28;20278;-80
2023/06/22 10:16:57;;;;;;;;;;;;;;;;;;5015532;28;19910;-81
2023/06/22 10:19:23;;;;;;;;;;;;;;;;;;5014417;28;19916;-79
2023/06/22 10:21:49;;;;;;;;;;;;;;;;;;5015085;28;19905;-80
2023/06/22 10:24:15;;;;;;;;;;;41.00;27.90;;;;;;5015134;28;19909;-80
2023/06/22 10:26:41;;;;;;;;;;;41.80;27.90;;;;;;5015908;28;20322;-79
2023/06/22 10:29:06;;;;;;;;;;;42.30;28.10;;;;;;4999109;28;19905;-81
2023/06/22 10:31:32;;;;;;;;;;;42.10;27.80;;;;;;5017308;28;19909;-79
2023/06/22 10:33:58;;;;;;;;;;;;;;;;;;5023282;28;20043;-78
2023/06/22 10:36:23;;;;;;;;;;;40.60;27.70;;;;;;5015831;28;19910;-80
2023/06/22 10:38:49;;;;;;;;;;;36.30;29.00;;;;;;4998005;28;19905;-82
2023/06/22 10:41:15;;;;;;;;;;;34.30;29.90;;;;;;5014943;28;19952;-79
2023/06/22 10:43:41;;;;;;;;;;;33.00;30.90;;;;;;5014424;28;19913;-80
2023/06/22 10:46:07;;;;;;;;;;;;;;;;;;5014435;28;19916;-82
2023/06/22 10:48:33;;;;;;;;;;;31.90;31.70;;;;;;5014453;28;20351;-79
2023/06/22 10:50:58;;;;;;;;;;;30.30;33.00;;;;;;5014822;28;20402;-79
2023/06/22 10:53:24;;;;;;;;;;;29.70;34.00;;;;;;5014349;28;19969;-80
2023/06/22 10:55:50;;;;;;;;;;;29.20;34.80;;;;;;4998307;28;20367;-80
2023/06/22 10:58:16;;;;;;;;;;;;;;;;;;5014984;28;19920;-79
2023/06/22 11:00:42;;;;;;;;;;;;;;;;;;4996720;28;20307;-82
2023/06/22 11:03:08;;;;;;;;;;;;;;;;;;5014132;28;19917;-81
2023/06/22 11:05:34;;;;;;;;;;;;;;;;;;5014062;28;20359;-79
2023/06/22 11:08:00;;;;;;;;;;;;;;;;;;5014060;28;19996;-79
2023/06/22 11:10:26;;;;;;;;;;;;;;;;;;5013541;28;19909;-81
2023/06/22 11:12:53;;;;;;;;;;;28.70;35.40;;;;;;5014044;28;19917;-77
2023/06/22 11:15:18;;;;;;;;;;;27.00;39.80;;;;;;5013996;28;19953;-81
2023/06/22 11:17:44;;;;;;;;;;;26.80;39.80;;;;;;4996077;28;19936;-81
2023/06/22 11:20:10;;;;;;;;;;;26.90;40.00;;;;;;5014081;28;19905;-79
2023/06/22 11:22:37;;;;;;;;;;;27.00;39.60;;;;;;5012890;28;19917;-80
2023/06/22 11:25:03;;;;;;;;;;;26.90;39.80;;;;;;5014397;28;19909;-80
2023/06/22 11:27:29;;;;;;;;;;;26.90;39.90;;;;;;5013197;28;20049;-79
2023/06/22 11:29:55;;;;;;;;;;;26.90;39.80;;;;;;5013620;28;19917;-79
2023/06/22 11:32:20;;;;;;;;;;;27.00;40.30;;;;;;5014803;28;19913;-80
2023/06/22 11:34:46;;;;;;;;;;;27.10;40.20;;;;;;5013726;28;20008;-80
2023/06/22 11:37:12;;;;;;;;;;;27.30;40.10;;;;;;5013889;28;19905;-80
2023/06/22 11:39:37;;;;;;;;;;;27.30;40.00;;;;;;5014063;28;19913;-81
2023/06/22 11:42:03;;;;;;;;;;;27.00;40.10;;;;;;5014466;28;20007;-82
2023/06/22 11:44:29;;;;;;;;;;;26.80;40.60;;;;;;5014183;28;19909;-79
2023/06/22 11:46:54;;;;;;;;;;;26.80;40.60;;;;;;5013275;28;19913;-79
2023/06/22 11:49:20;;;;;;;;;;;26.90;40.70;;;;;;5013568;28;19944;-80
2023/06/22 11:51:45;;;;;;;;;;;26.80;40.70;;;;;;5012946;28;19910;-81
2023/06/22 11:54:11;;;;;;;;;;;26.80;40.70;;;;;;5013439;28;20283;-80
2023/06/22 11:56:37;;;;;;;;;;;26.90;40.60;;;;;;5013571;28;19928;-81
2023/06/22 11:59:06;;;;;;;;;;;27.00;40.90;;;;;;5013590;28;20290;-79
2023/06/22 12:01:33;;;;;;;;;;;27.00;40.90;;;;;;5014239;28;19913;-79
2023/06/22 12:03:58;;;;;;;;;;;27.00;41.00;;;;;;5013398;28;19917;-78
2023/06/22 12:06:24;;;;;;;;;;;27.00;41.10;;;;;;5013566;28;19997;-79
2023/06/22 12:08:50;;;;;;;;;;;27.00;41.00;;;;;;5013680;28;19912;-82
2023/06/22 12:11:15;;;;;;;;;;;27.00;40.90;;;;;;4996092;28;19906;-79
2023/06/22 12:13:41;;;;;;;;;;;26.90;40.90;;;;;;5012940;28;19909;-78
2023/06/22 12:16:07;;;;;;;;;;;26.90;41.10;;;;;;4995478;28;19917;-79
2023/06/22 12:18:32;;;;;;;;;;;26.90;41.10;;;;;;5013389;28;19909;-79
2023/06/22 12:20:58;;;;;;;;;;;26.90;40.90;;;;;;4978731;28;19913;-80
2023/06/22 12:23:24;;;;;;;;;;;26.90;41.00;;;;;;4995101;28;20033;-80
2023/06/22 12:25:49;;;;;;;;;;;27.00;41.20;;;;;;5012760;28;20417;-79
2023/06/22 12:28:15;;;;;;;;;;;27.00;41.30;;;;;;5014357;28;19912;-79
2023/06/22 12:30:41;;;;;;;;;;;27.00;41.20;;;;;;5014894;28;19949;-80
2023/06/22 12:33:06;;;;;;;;;;;27.00;41.00;;;;;;4994131;28;19916;-79
2023/06/22 12:35:32;;;;;;;;;;;27.10;41.00;;;;;;5012489;28;19914;-79
2023/06/22 12:37:58;;;;;;;;;;;27.20;41.10;;;;;;5012412;28;19924;-79
2023/06/22 12:40:23;;;;;;;;;;;27.30;41.10;;;;;;5012621;28;19906;-80
2023/06/22 12:42:49;;;;;;;;;;;27.30;40.80;;;;;;4994564;28;19913;-80
2023/06/22 12:45:15;;;;;;;;;;;27.20;40.90;;;;;;5012479;28;19905;-78
2023/06/22 12:47:40;;;;;;;;;;;27.10;41.10;;;;;;5011775;28;19912;-80
2023/06/22 12:50:06;;;;;;;;;;;26.90;41.00;;;;;;5012100;28;19913;-80
2023/06/22 12:52:32;;;;;;;;;;;26.80;40.80;;;;;;5012611;28;20015;-79
2023/06/22 12:54:58;;;;;;;;;;;26.70;41.30;;;;;;5011641;28;19999;-78
2023/06/22 12:57:23;;;;;;;;;;;26.70;41.20;;;;;;5013020;28;20386;-80
2023/06/22 12:59:49;;;;;;;;;;;26.70;41.00;;;;;;5012502;28;19906;-79
2023/06/22 13:02:15;;;;;;;;;;;26.80;41.10;;;;;;5012292;28;20371;-79
2023/06/22 13:04:41;;;;;;;;;;;26.80;40.80;;;;;;5012321;28;20031;-78
2023/06/22 13:07:06;;;;;;;;;;;26.70;40.90;;;;;;5012122;28;19944;-80
2023/06/22 13:09:34;;;;;;;;;;;26.80;40.90;;;;;;5012045;28;20046;-80
2023/06/22 13:12:00;;;;;;;;;;;26.80;40.90;;;;;;5011947;28;19909;-79
2023/06/22 13:14:28;;;;;;;;;;;26.90;40.60;;;;;;5012836;28;19920;-79
2023/06/22 13:16:54;;;;;;;;;;;26.80;40.30;;;;;;4995395;28;19945;-80
2023/06/22 13:19:19;;;;;;;;;;;26.80;40.50;;;;;;4994356;28;19976;-80
2023/06/22 13:21:45;;;;;;;;;;;26.80;40.70;;;;;;5012262;28;19913;-79
2023/06/22 13:24:10;;;;;;;;;;;26.80;40.60;;;;;;5012383;28;20012;-80
2023/06/22 13:26:36;;;;;;;;;;;26.90;40.40;;;;;;5012098;28;20374;-79
2023/06/22 13:29:02;;;;;;;;;;;26.90;40.30;;;;;;5011578;28;19925;-80
2023/06/22 13:31:27;;;;;;;;;;;26.90;40.30;;;;;;5011936;28;19936;-79
2023/06/22 13:33:53;;;;;;;;;;;26.90;40.30;;;;;;4994218;28;19912;-79
2023/06/22 13:36:19;;;;;;;;;;;26.90;40.30;;;;;;5012006;28;19910;-79
2023/06/22 13:38:45;;;;;;;;;;;26.80;40.90;;;;;;5012169;28;19905;-80
2023/06/22 13:41:11;;;;;;;;;;;27.30;40.30;;;;;;4994600;28;19906;-79
2023/06/22 13:43:36;;;;;;;;;;;28.00;39.90;;;;;;5011947;28;19917;-78
2023/06/22 13:46:02;;;;;;;;;;;27.80;39.50;;;;;;5018311;28;19948;-78
2023/06/22 13:48:28;;;;;;;;;;;27.50;39.80;;;;;;5018136;28;19909;-78
2023/06/22 13:50:54;;;;;;;;;;;28.00;40.10;;;;;;5018282;28;19909;-80
2023/06/22 13:53:19;;;;;;;;;;;28.70;39.60;;;;;;5019416;28;19905;-78
2023/06/22 13:55:46;;;;;;;;;;;29.80;39.10;;;;;;5016202;28;20430;-78
2023/06/22 13:58:12;;;;;;;;;;;30.20;38.10;;;;;;4997670;28;19909;-79
2023/06/22 14:00:37;;;;;;;;;;;30.80;38.10;;;;;;5014693;28;20278;-79
2023/06/22 14:03:03;;;;;;;;;;;31.60;38.00;;;;;;5015104;28;19957;-80
2023/06/22 14:05:29;;;;;;;;;;;32.30;37.60;;;;;;5015207;28;20437;-78
2023/06/22 14:07:55;;;;;;;;;;;32.60;36.70;;;;;;5015349;28;19913;-80
2023/06/22 14:10:20;;;;;;;;;;;32.80;36.50;;;;;;4997452;28;19905;-79
2023/06/22 14:12:46;;;;;;;;;;;32.90;36.00;;;;;;5015283;28;20356;-78
2023/06/22 14:15:12;;;;;;;;;;;33.00;35.80;;;;;;4997447;28;19906;-79
2023/06/22 14:17:37;;;;;;;;;;;33.30;36.10;;;;;;5014376;28;19914;-80
2023/06/22 14:20:05;;;;;;;;;;;33.40;36.00;;;;;;5015245;28;19911;-79